sensor_id;sensor_type;location;lat;lon;timestamp;pressure;altitude;pressure_sealevel;temperature;humidity
73455;BME280;61690;51.824;6.306;2023-06-14T00:01:34;101358.09;;;22.36;32.36
73455;BME280;61690;51.824;6.306;2023-06-14T00:04:00;101369.75;;;22.34;32.10
73455;BME280;61690;51.824;6.306;2023-06-14T00:06:28;101360.41;;;22.41;32.31
73455;BME280;61690;51.824;6.306;2023-06-14T00:08:55;101364.75;;;22.42;32.34
73455;BME280;61690;51.824;6.306;2023-06-14T00:11:20;101371.94;;;22.28;32.50
73455;BME280;61690;51.824;6.306;2023-06-14T00:13:46;101370.50;;;22.36;32.36
73455;BME280;61690;51.824;6.306;2023-06-14T00:16:12;101366.06;;;22.36;31.84
73455;BME280;61690;51.824;6.306;2023-06-14T00:18:37;101367.16;;;22.45;31.97
73455;BME280;61690;51.824;6.306;2023-06-14T00:21:03;101372.16;;;22.25;32.27
73455;BME280;61690;51.824;6.306;2023-06-14T00:23:29;101370.94;;;22.29;32.30
73455;BME280;61690;51.824;6.306;2023-06-14T00:25:54;101383.38;;;22.29;32.48
73455;BME280;61690;51.824;6.306;2023-06-14T00:28:20;101383.25;;;22.30;32.55
73455;BME280;61690;51.824;6.306;2023-06-14T00:30:45;101383.66;;;22.24;32.07
73455;BME280;61690;51.824;6.306;2023-06-14T00:33:12;101386.97;;;22.28;32.27
73455;BME280;61690;51.824;6.306;2023-06-14T00:35:37;101398.53;;;22.27;32.19
73455;BME280;61690;51.824;6.306;2023-06-14T00:38:03;101395.03;;;22.50;32.08
73455;BME280;61690;51.824;6.306;2023-06-14T00:40:28;101396.38;;;22.56;31.86
73455;BME280;61690;51.824;6.306;2023-06-14T00:42:53;101389.09;;;22.47;32.05
73455;BME280;61690;51.824;6.306;2023-06-14T00:45:19;101400.63;;;22.35;32.18
73455;BME280;61690;51.824;6.306;2023-06-14T00:47:45;101400.69;;;22.46;32.09
73455;BME280;61690;51.824;6.306;2023-06-14T00:50:11;101396.06;;;22.37;32.31
73455;BME280;61690;51.824;6.306;2023-06-14T00:52:36;101399.94;;;22.44;32.30
73455;BME280;61690;51.824;6.306;2023-06-14T00:55:02;101399.44;;;22.39;32.32
73455;BME280;61690;51.824;6.306;2023-06-14T00:57:28;101400.69;;;22.46;32.29
73455;BME280;61690;51.824;6.306;2023-06-14T00:59:55;101397.69;;;22.50;32.11
73455;BME280;61690;51.824;6.306;2023-06-14T01:02:20;101396.78;;;22.39;32.60
73455;BME280;61690;51.824;6.306;2023-06-14T01:04:47;101403.00;;;22.26;32.54
73455;BME280;61690;51.824;6.306;2023-06-14T01:13:07;101398.03;;;22.46;32.40
73455;BME280;61690;51.824;6.306;2023-06-14T01:15:34;101406.22;;;22.06;32.65
73455;BME280;61690;51.824;6.306;2023-06-14T01:18:00;101398.75;;;22.11;32.63
73455;BME280;61690;51.824;6.306;2023-06-14T01:20:32;101405.97;;;22.09;32.96
73455;BME280;61690;51.824;6.306;2023-06-14T01:22:58;101393.84;;;22.30;32.58
73455;BME280;61690;51.824;6.306;2023-06-14T01:25:24;101397.97;;;22.35;32.31
73455;BME280;61690;51.824;6.306;2023-06-14T01:27:54;101396.31;;;22.21;32.68
73455;BME280;61690;51.824;6.306;2023-06-14T01:30:21;101393.03;;;22.17;33.01
73455;BME280;61690;51.824;6.306;2023-06-14T01:32:49;101394.06;;;22.27;32.78
73455;BME280;61690;51.824;6.306;2023-06-14T01:35:16;101398.19;;;22.31;32.64
73455;BME280;61690;51.824;6.306;2023-06-14T01:37:42;101393.50;;;22.35;32.70
73455;BME280;61690;51.824;6.306;2023-06-14T01:40:09;101397.00;;;22.36;32.56
73455;BME280;61690;51.824;6.306;2023-06-14T01:42:36;101396.06;;;22.37;32.75
73455;BME280;61690;51.824;6.306;2023-06-14T01:45:04;101400.84;;;22.31;32.70
73455;BME280;61690;51.824;6.306;2023-06-14T01:47:31;101393.63;;;22.34;32.75
73455;BME280;61690;51.824;6.306;2023-06-14T01:49:57;101400.94;;;22.30;32.82
73455;BME280;61690;51.824;6.306;2023-06-14T01:52:23;101396.34;;;22.08;32.68
73455;BME280;61690;51.824;6.306;2023-06-14T01:54:50;101399.91;;;21.83;33.50
73455;BME280;61690;51.824;6.306;2023-06-14T01:57:15;101395.56;;;22.19;33.24
73455;BME280;61690;51.824;6.306;2023-06-14T01:59:41;101397.81;;;22.25;33.02
73455;BME280;61690;51.824;6.306;2023-06-14T02:02:06;101397.47;;;22.29;33.20
73455;BME280;61690;51.824;6.306;2023-06-14T02:04:31;101396.63;;;22.16;33.03
73455;BME280;61690;51.824;6.306;2023-06-14T02:06:57;101392.25;;;22.28;33.03
73455;BME280;61690;51.824;6.306;2023-06-14T02:09:22;101390.88;;;22.22;33.11
73455;BME280;61690;51.824;6.306;2023-06-14T02:11:48;101388.03;;;22.25;33.13
73455;BME280;61690;51.824;6.306;2023-06-14T02:14:14;101384.63;;;22.23;32.92
73455;BME280;61690;51.824;6.306;2023-06-14T02:16:39;101385.56;;;22.22;33.03
73455;BME280;61690;51.824;6.306;2023-06-14T02:19:05;101383.94;;;22.08;33.35
73455;BME280;61690;51.824;6.306;2023-06-14T02:21:30;101384.84;;;22.20;33.14
73455;BME280;61690;51.824;6.306;2023-06-14T02:23:56;101384.56;;;22.12;33.25
73455;BME280;61690;51.824;6.306;2023-06-14T02:26:21;101386.38;;;22.11;33.23
73455;BME280;61690;51.824;6.306;2023-06-14T02:28:48;101388.16;;;22.11;33.20
73455;BME280;61690;51.824;6.306;2023-06-14T02:31:13;101387.09;;;22.13;33.17
73455;BME280;61690;51.824;6.306;2023-06-14T02:33:38;101390.75;;;22.00;33.63
73455;BME280;61690;51.824;6.306;2023-06-14T02:36:04;101392.91;;;21.82;34.08
73455;BME280;61690;51.824;6.306;2023-06-14T02:38:30;101389.34;;;22.07;33.55
73455;BME280;61690;51.824;6.306;2023-06-14T02:40:55;101394.56;;;21.96;33.55
73455;BME280;61690;51.824;6.306;2023-06-14T02:43:20;101397.34;;;21.94;33.46
73455;BME280;61690;51.824;6.306;2023-06-14T02:45:45;101393.91;;;22.05;33.64
73455;BME280;61690;51.824;6.306;2023-06-14T02:48:11;101390.75;;;22.00;33.58
73455;BME280;61690;51.824;6.306;2023-06-14T02:50:36;101387.66;;;22.06;33.58
73455;BME280;61690;51.824;6.306;2023-06-14T02:53:01;101399.09;;;22.06;33.57
73455;BME280;61690;51.824;6.306;2023-06-14T02:55:28;101399.44;;;22.02;33.48
73455;BME280;61690;51.824;6.306;2023-06-14T02:57:54;101402.81;;;22.04;33.64
73455;BME280;61690;51.824;6.306;2023-06-14T03:00:19;101406.22;;;22.06;33.60
73455;BME280;61690;51.824;6.306;2023-06-14T03:02:45;101406.41;;;22.03;33.58
73455;BME280;61690;51.824;6.306;2023-06-14T03:05:10;101416.91;;;22.04;33.53
73455;BME280;61690;51.824;6.306;2023-06-14T03:07:36;101414.59;;;22.00;33.70
73455;BME280;61690;51.824;6.306;2023-06-14T03:10:09;101419.75;;;22.01;33.55
73455;BME280;61690;51.824;6.306;2023-06-14T03:12:35;101423.50;;;21.86;33.75
73455;BME280;61690;51.824;6.306;2023-06-14T03:15:01;101425.84;;;21.90;33.89
73455;BME280;61690;51.824;6.306;2023-06-14T03:17:27;101428.50;;;21.90;33.91
73455;BME280;61690;51.824;6.306;2023-06-14T03:19:55;101425.22;;;21.87;34.04
73455;BME280;61690;51.824;6.306;2023-06-14T03:22:20;101436.22;;;21.93;33.97
73455;BME280;61690;51.824;6.306;2023-06-14T03:24:47;101432.00;;;21.78;34.15
73455;BME280;61690;51.824;6.306;2023-06-14T03:27:12;101437.19;;;21.92;33.87
73455;BME280;61690;51.824;6.306;2023-06-14T03:29:37;101441.75;;;21.90;33.92
73455;BME280;61690;51.824;6.306;2023-06-14T03:32:03;101439.19;;;21.89;33.99
73455;BME280;61690;51.824;6.306;2023-06-14T03:34:29;101441.44;;;21.82;33.93
73455;BME280;61690;51.824;6.306;2023-06-14T03:36:54;101444.84;;;21.84;34.24
73455;BME280;61690;51.824;6.306;2023-06-14T03:39:20;101447.59;;;21.83;34.26
73455;BME280;61690;51.824;6.306;2023-06-14T03:41:45;101448.53;;;21.82;34.41
73455;BME280;61690;51.824;6.306;2023-06-14T03:44:11;101451.06;;;21.83;34.09
73455;BME280;61690;51.824;6.306;2023-06-14T03:46:36;101457.94;;;21.86;34.05
73455;BME280;61690;51.824;6.306;2023-06-14T03:49:01;101454.56;;;21.84;34.10
73455;BME280;61690;51.824;6.306;2023-06-14T03:51:28;101457.09;;;21.85;34.04
73455;BME280;61690;51.824;6.306;2023-06-14T03:53:53;101459.03;;;21.83;34.21
73455;BME280;61690;51.824;6.306;2023-06-14T03:56:19;101460.09;;;21.81;34.09
73455;BME280;61690;51.824;6.306;2023-06-14T03:58:44;101456.16;;;21.86;34.15
73455;BME280;61690;51.824;6.306;2023-06-14T04:01:09;101455.53;;;21.83;34.11
73455;BME280;61690;51.824;6.306;2023-06-14T04:03:37;101466.97;;;21.83;34.12
73455;BME280;61690;51.824;6.306;2023-06-14T04:06:03;101473.84;;;21.86;34.10
73455;BME280;61690;51.824;6.306;2023-06-14T04:08:29;101472.25;;;21.83;34.23
73455;BME280;61690;51.824;6.306;2023-06-14T04:10:54;101479.06;;;21.62;34.63
73455;BME280;61690;51.824;6.306;2023-06-14T04:13:20;101480.31;;;21.82;34.50
73455;BME280;61690;51.824;6.306;2023-06-14T04:15:45;101480.00;;;21.61;34.38
73455;BME280;61690;51.824;6.306;2023-06-14T04:18:11;101478.41;;;21.84;34.20
73455;BME280;61690;51.824;6.306;2023-06-14T04:20:36;101486.34;;;21.84;34.35
73455;BME280;61690;51.824;6.306;2023-06-14T04:23:13;101483.81;;;21.82;34.42
73455;BME280;61690;51.824;6.306;2023-06-14T04:25:39;101491.44;;;21.87;34.47
73455;BME280;61690;51.824;6.306;2023-06-14T04:28:05;101491.47;;;21.61;34.64
73455;BME280;61690;51.824;6.306;2023-06-14T04:30:30;101492.91;;;21.78;34.83
73455;BME280;61690;51.824;6.306;2023-06-14T04:32:56;101497.59;;;21.62;34.80
73455;BME280;61690;51.824;6.306;2023-06-14T04:35:22;101499.28;;;21.23;35.28
73455;BME280;61690;51.824;6.306;2023-06-14T04:37:49;101502.94;;;19.97;37.96
73455;BME280;61690;51.824;6.306;2023-06-14T04:40:14;101511.53;;;19.72;39.08
73455;BME280;61690;51.824;6.306;2023-06-14T04:42:40;101501.19;;;19.53;39.23
73455;BME280;61690;51.824;6.306;2023-06-14T04:45:06;101512.22;;;19.59;39.79
73455;BME280;61690;51.824;6.306;2023-06-14T04:47:32;101512.94;;;19.47;39.95
73455;BME280;61690;51.824;6.306;2023-06-14T04:49:57;101506.84;;;19.47;40.07
73455;BME280;61690;51.824;6.306;2023-06-14T04:52:23;101508.47;;;19.64;39.57
73455;BME280;61690;51.824;6.306;2023-06-14T04:54:51;101509.19;;;19.51;40.53
73455;BME280;61690;51.824;6.306;2023-06-14T04:57:17;101513.09;;;19.60;39.89
73455;BME280;61690;51.824;6.306;2023-06-14T04:59:47;101512.94;;;19.47;40.72
73455;BME280;61690;51.824;6.306;2023-06-14T05:02:13;101521.06;;;20.17;39.89
73455;BME280;61690;51.824;6.306;2023-06-14T05:04:38;101521.34;;;20.69;39.09
73455;BME280;61690;51.824;6.306;2023-06-14T05:07:06;101523.25;;;20.94;38.37
73455;BME280;61690;51.824;6.306;2023-06-14T05:09:32;101525.75;;;21.10;38.34
73455;BME280;61690;51.824;6.306;2023-06-14T05:11:58;101526.16;;;21.17;38.43
73455;BME280;61690;51.824;6.306;2023-06-14T05:14:25;101527.78;;;21.32;38.38
73455;BME280;61690;51.824;6.306;2023-06-14T05:16:50;101531.16;;;21.48;37.82
73455;BME280;61690;51.824;6.306;2023-06-14T05:19:16;101535.72;;;21.19;38.41
73455;BME280;61690;51.824;6.306;2023-06-14T05:21:43;101536.63;;;21.45;37.99
73455;BME280;61690;51.824;6.306;2023-06-14T05:24:08;101537.13;;;21.25;38.34
73455;BME280;61690;51.824;6.306;2023-06-14T05:26:34;101539.22;;;21.20;38.56
73455;BME280;61690;51.824;6.306;2023-06-14T05:29:00;101532.81;;;21.49;37.96
73455;BME280;61690;51.824;6.306;2023-06-14T05:31:27;101537.00;;;21.79;37.91
73455;BME280;61690;51.824;6.306;2023-06-14T05:33:53;101539.94;;;22.13;37.55
73455;BME280;61690;51.824;6.306;2023-06-14T05:36:19;101533.91;;;22.61;36.01
73455;BME280;61690;51.824;6.306;2023-06-14T05:38:46;101539.75;;;22.53;35.43
73455;BME280;61690;51.824;6.306;2023-06-14T05:41:11;101545.25;;;21.87;36.45
73455;BME280;61690;51.824;6.306;2023-06-14T05:43:37;101543.34;;;21.24;37.62
73455;BME280;61690;51.824;6.306;2023-06-14T05:46:02;101544.03;;;21.00;38.51
73455;BME280;61690;51.824;6.306;2023-06-14T05:48:28;101552.09;;;21.11;37.75
73455;BME280;61690;51.824;6.306;2023-06-14T05:50:54;101550.84;;;21.44;37.49
73455;BME280;61690;51.824;6.306;2023-06-14T05:53:19;101542.94;;;21.83;36.79
73455;BME280;61690;51.824;6.306;2023-06-14T05:55:44;101548.63;;;22.02;36.59
73455;BME280;61690;51.824;6.306;2023-06-14T05:58:10;101556.78;;;22.12;36.90
73455;BME280;61690;51.824;6.306;2023-06-14T06:00:36;101553.94;;;22.15;37.02
73455;BME280;61690;51.824;6.306;2023-06-14T06:03:01;101552.16;;;22.28;36.79
73455;BME280;61690;51.824;6.306;2023-06-14T06:05:26;101557.09;;;22.33;36.18
73455;BME280;61690;51.824;6.306;2023-06-14T06:07:52;101561.13;;;22.39;36.26
73455;BME280;61690;51.824;6.306;2023-06-14T06:10:17;101560.69;;;22.45;36.18
73455;BME280;61690;51.824;6.306;2023-06-14T06:12:43;101556.25;;;22.33;35.88
73455;BME280;61690;51.824;6.306;2023-06-14T06:15:08;101560.28;;;22.38;36.27
73455;BME280;61690;51.824;6.306;2023-06-14T06:17:37;101562.06;;;22.38;36.40
73455;BME280;61690;51.824;6.306;2023-06-14T06:20:03;101571.06;;;22.48;36.56
73455;BME280;61690;51.824;6.306;2023-06-14T06:22:28;101564.69;;;22.50;36.36
73455;BME280;61690;51.824;6.306;2023-06-14T06:24:54;101572.13;;;22.45;36.55
73455;BME280;61690;51.824;6.306;2023-06-14T06:27:19;101583.81;;;22.30;36.15
73455;BME280;61690;51.824;6.306;2023-06-14T06:29:45;101577.78;;;22.28;36.20
73455;BME280;61690;51.824;6.306;2023-06-14T06:32:10;101577.88;;;22.39;35.83
73455;BME280;61690;51.824;6.306;2023-06-14T06:34:36;101576.78;;;22.55;35.25
73455;BME280;61690;51.824;6.306;2023-06-14T06:37:02;101578.59;;;22.54;34.80
73455;BME280;61690;51.824;6.306;2023-06-14T06:39:27;101584.88;;;22.27;35.11
73455;BME280;61690;51.824;6.306;2023-06-14T06:41:53;101584.25;;;22.37;35.40
73455;BME280;61690;51.824;6.306;2023-06-14T06:44:18;101596.13;;;22.44;36.17
73455;BME280;61690;51.824;6.306;2023-06-14T06:46:43;101588.47;;;22.52;35.99
73455;BME280;61690;51.824;6.306;2023-06-14T06:49:09;101597.69;;;22.46;36.10
73455;BME280;61690;51.824;6.306;2023-06-14T06:51:36;101596.69;;;22.60;36.18
73455;BME280;61690;51.824;6.306;2023-06-14T06:54:02;101594.66;;;22.77;36.18
73455;BME280;61690;51.824;6.306;2023-06-14T06:56:28;101596.84;;;22.83;36.22
73455;BME280;61690;51.824;6.306;2023-06-14T06:58:53;101597.38;;;22.88;36.37
73455;BME280;61690;51.824;6.306;2023-06-14T07:01:18;101602.22;;;22.94;36.81
73455;BME280;61690;51.824;6.306;2023-06-14T07:03:45;101608.78;;;23.01;36.67
73455;BME280;61690;51.824;6.306;2023-06-14T07:06:10;101610.56;;;23.01;36.74
73455;BME280;61690;51.824;6.306;2023-06-14T07:08:36;101614.72;;;23.05;36.75
73455;BME280;61690;51.824;6.306;2023-06-14T07:11:03;101614.78;;;23.16;36.97
73455;BME280;61690;51.824;6.306;2023-06-14T07:13:29;101623.09;;;23.12;37.10
73455;BME280;61690;51.824;6.306;2023-06-14T07:15:57;101623.09;;;23.12;37.05
73455;BME280;61690;51.824;6.306;2023-06-14T07:18:23;101615.13;;;23.12;37.63
73455;BME280;61690;51.824;6.306;2023-06-14T07:20:48;101618.16;;;23.07;37.45
73455;BME280;61690;51.824;6.306;2023-06-14T07:23:14;101622.69;;;23.05;37.47
73455;BME280;61690;51.824;6.306;2023-06-14T07:25:39;101613.69;;;23.07;37.85
73455;BME280;61690;51.824;6.306;2023-06-14T07:28:04;101616.97;;;23.11;37.55
73455;BME280;61690;51.824;6.306;2023-06-14T07:30:30;101625.53;;;23.15;37.89
73455;BME280;61690;51.824;6.306;2023-06-14T07:32:56;101631.59;;;23.17;37.95
73455;BME280;61690;51.824;6.306;2023-06-14T07:35:21;101629.16;;;23.14;37.92
73455;BME280;61690;51.824;6.306;2023-06-14T07:37:47;101627.63;;;23.22;38.19
73455;BME280;61690;51.824;6.306;2023-06-14T07:40:13;101629.19;;;23.25;38.28
73455;BME280;61690;51.824;6.306;2023-06-14T07:42:38;101625.53;;;23.15;37.37
73455;BME280;61690;51.824;6.306;2023-06-14T07:45:04;101624.84;;;23.24;37.44
73455;BME280;61690;51.824;6.306;2023-06-14T07:47:30;101626.03;;;23.20;37.84
73455;BME280;61690;51.824;6.306;2023-06-14T07:49:55;101624.63;;;23.27;37.76
73455;BME280;61690;51.824;6.306;2023-06-14T07:52:20;101634.31;;;23.28;37.64
73455;BME280;61690;51.824;6.306;2023-06-14T07:54:46;101632.59;;;23.27;37.76
73455;BME280;61690;51.824;6.306;2023-06-14T07:57:11;101635.13;;;23.28;37.83
73455;BME280;61690;51.824;6.306;2023-06-14T07:59:36;101630.88;;;23.26;38.14
73455;BME280;61690;51.824;6.306;2023-06-14T08:02:02;101629.00;;;23.28;37.88
73455;BME280;61690;51.824;6.306;2023-06-14T08:04:27;101631.50;;;23.29;37.75
73455;BME280;61690;51.824;6.306;2023-06-14T08:06:53;101627.66;;;23.34;37.76
73455;BME280;61690;51.824;6.306;2023-06-14T08:09:19;101637.22;;;23.36;37.95
73455;BME280;61690;51.824;6.306;2023-06-14T08:11:44;101635.19;;;23.40;37.94
73455;BME280;61690;51.824;6.306;2023-06-14T08:14:09;101630.00;;;23.38;38.09
73455;BME280;61690;51.824;6.306;2023-06-14T08:16:35;101636.75;;;23.42;38.23
73455;BME280;61690;51.824;6.306;2023-06-14T08:19:00;101637.44;;;23.33;37.14
73455;BME280;61690;51.824;6.306;2023-06-14T08:21:26;101628.00;;;23.29;36.89
73455;BME280;61690;51.824;6.306;2023-06-14T08:23:54;101638.06;;;23.37;37.17
73455;BME280;61690;51.824;6.306;2023-06-14T08:26:20;101633.38;;;23.40;37.60
73455;BME280;61690;51.824;6.306;2023-06-14T08:28:46;101625.31;;;23.42;37.31
73455;BME280;61690;51.824;6.306;2023-06-14T08:31:11;101626.34;;;23.39;37.67
73455;BME280;61690;51.824;6.306;2023-06-14T08:33:36;101626.81;;;23.33;37.12
73455;BME280;61690;51.824;6.306;2023-06-14T08:36:02;101627.22;;;23.16;36.64
73455;BME280;61690;51.824;6.306;2023-06-14T08:38:27;101629.78;;;23.17;36.53
73455;BME280;61690;51.824;6.306;2023-06-14T08:40:52;101617.00;;;23.22;36.56
73455;BME280;61690;51.824;6.306;2023-06-14T08:43:21;101622.06;;;23.25;36.63
73455;BME280;61690;51.824;6.306;2023-06-14T08:45:48;101617.38;;;23.29;36.71
73455;BME280;61690;51.824;6.306;2023-06-14T08:48:14;101620.03;;;23.29;36.90
73455;BME280;61690;51.824;6.306;2023-06-14T08:50:43;101620.84;;;23.42;36.68
73455;BME280;61690;51.824;6.306;2023-06-14T08:53:11;101614.78;;;23.40;36.64
73455;BME280;61690;51.824;6.306;2023-06-14T08:55:44;101626.50;;;23.38;36.65
73455;BME280;61690;51.824;6.306;2023-06-14T08:58:10;101622.66;;;23.42;36.73
73455;BME280;61690;51.824;6.306;2023-06-14T09:00:40;101613.09;;;23.39;36.88
73455;BME280;61690;51.824;6.306;2023-06-14T09:03:08;101615.72;;;23.39;36.75
73455;BME280;61690;51.824;6.306;2023-06-14T09:05:38;101615.53;;;23.42;36.67
73455;BME280;61690;51.824;6.306;2023-06-14T09:08:04;101612.34;;;23.37;36.83
73455;BME280;61690;51.824;6.306;2023-06-14T09:10:31;101620.94;;;23.41;36.68
73455;BME280;61690;51.824;6.306;2023-06-14T09:13:00;101625.63;;;23.37;36.86
73455;BME280;61690;51.824;6.306;2023-06-14T09:15:25;101626.59;;;23.36;37.03
73455;BME280;61690;51.824;6.306;2023-06-14T09:17:51;101629.88;;;23.40;36.95
73455;BME280;61690;51.824;6.306;2023-06-14T09:20:16;101622.97;;;23.37;37.08
73455;BME280;61690;51.824;6.306;2023-06-14T09:22:45;101626.50;;;23.38;36.79
73455;BME280;61690;51.824;6.306;2023-06-14T09:25:10;101622.75;;;23.40;36.77
73455;BME280;61690;51.824;6.306;2023-06-14T09:27:38;101633.38;;;23.40;36.97
73455;BME280;61690;51.824;6.306;2023-06-14T09:30:05;101629.75;;;23.41;36.76
73455;BME280;61690;51.824;6.306;2023-06-14T09:32:36;101626.69;;;23.59;37.72
73455;BME280;61690;51.824;6.306;2023-06-14T09:35:02;101636.56;;;23.57;36.56
73455;BME280;61690;51.824;6.306;2023-06-14T09:37:29;101637.81;;;23.64;36.73
73455;BME280;61690;51.824;6.306;2023-06-14T09:39:54;101635.38;;;23.61;37.09
73455;BME280;61690;51.824;6.306;2023-06-14T09:42:20;101632.47;;;23.64;37.04
73455;BME280;61690;51.824;6.306;2023-06-14T09:44:49;101636.59;;;23.68;36.94
73455;BME280;61690;51.824;6.306;2023-06-14T09:47:15;101639.03;;;23.71;37.31
73455;BME280;61690;51.824;6.306;2023-06-14T09:49:41;101636.16;;;23.74;37.44
73455;BME280;61690;51.824;6.306;2023-06-14T09:52:10;101637.84;;;23.75;37.29
73455;BME280;61690;51.824;6.306;2023-06-14T09:54:41;101649.00;;;23.80;37.28
73455;BME280;61690;51.824;6.306;2023-06-14T09:57:10;101630.22;;;23.71;37.28
73455;BME280;61690;51.824;6.306;2023-06-14T09:59:35;101636.84;;;23.65;37.73
73455;BME280;61690;51.824;6.306;2023-06-14T10:02:07;101636.13;;;23.63;37.69
73455;BME280;61690;51.824;6.306;2023-06-14T10:04:34;101635.38;;;23.61;37.59
73455;BME280;61690;51.824;6.306;2023-06-14T10:07:00;101634.53;;;23.60;37.69
73455;BME280;61690;51.824;6.306;2023-06-14T10:09:26;101646.97;;;23.60;37.55
73455;BME280;61690;51.824;6.306;2023-06-14T10:11:52;101638.16;;;23.59;37.63
73455;BME280;61690;51.824;6.306;2023-06-14T10:14:17;101642.38;;;23.62;37.49
73455;BME280;61690;51.824;6.306;2023-06-14T10:17:09;101646.03;;;23.61;37.75
73455;BME280;61690;51.824;6.306;2023-06-14T10:19:49;101652.06;;;23.63;37.67
73455;BME280;61690;51.824;6.306;2023-06-14T10:22:22;101646.03;;;23.61;37.69
73455;BME280;61690;51.824;6.306;2023-06-14T10:24:50;101644.94;;;23.63;37.46
73455;BME280;61690;51.824;6.306;2023-06-14T10:27:15;101638.78;;;23.63;37.51
73455;BME280;61690;51.824;6.306;2023-06-14T10:30:04;101642.16;;;23.65;37.19
73455;BME280;61690;51.824;6.306;2023-06-14T10:32:31;101642.16;;;23.65;37.08
73455;BME280;61690;51.824;6.306;2023-06-14T10:35:06;101638.53;;;23.66;37.55
73455;BME280;61690;51.824;6.306;2023-06-14T10:37:32;101639.50;;;23.65;37.60
73455;BME280;61690;51.824;6.306;2023-06-14T10:39:58;101631.53;;;23.65;37.42
73455;BME280;61690;51.824;6.306;2023-06-14T10:42:28;101635.75;;;23.67;37.38
73455;BME280;61690;51.824;6.306;2023-06-14T10:44:57;101638.41;;;23.67;37.23
73455;BME280;61690;51.824;6.306;2023-06-14T10:52:30;101639.97;;;23.70;37.24
73455;BME280;61690;51.824;6.306;2023-06-14T10:57:37;101629.34;;;23.70;37.25
73455;BME280;61690;51.824;6.306;2023-06-14T11:00:04;101633.00;;;23.69;37.36
73455;BME280;61690;51.824;6.306;2023-06-14T11:03:23;101635.25;;;23.86;36.90
73455;BME280;61690;51.824;6.306;2023-06-14T11:05:54;101634.78;;;23.93;36.94
73455;BME280;61690;51.824;6.306;2023-06-14T11:10:46;101642.75;;;24.04;37.16
73455;BME280;61690;51.824;6.306;2023-06-14T11:13:12;101642.03;;;24.02;37.06
73455;BME280;61690;51.824;6.306;2023-06-14T11:15:39;101635.00;;;24.01;37.29
73455;BME280;61690;51.824;6.306;2023-06-14T11:18:08;101639.59;;;23.99;37.05
73455;BME280;61690;51.824;6.306;2023-06-14T11:20:36;101638.63;;;23.88;36.68
73455;BME280;61690;51.824;6.306;2023-06-14T11:23:03;101638.56;;;23.77;36.60
73455;BME280;61690;51.824;6.306;2023-06-14T11:25:29;101637.66;;;23.78;37.43
73455;BME280;61690;51.824;6.306;2023-06-14T11:27:55;101627.03;;;24.01;37.13
73455;BME280;61690;51.824;6.306;2023-06-14T11:30:21;101619.06;;;24.01;37.21
73455;BME280;61690;51.824;6.306;2023-06-14T11:32:47;101632.25;;;24.02;37.55
73455;BME280;61690;51.824;6.306;2023-06-14T11:35:13;101632.63;;;24.09;37.81
73455;BME280;61690;51.824;6.306;2023-06-14T11:37:39;101624.91;;;24.17;37.63
73455;BME280;61690;51.824;6.306;2023-06-14T11:40:06;101626.47;;;24.20;37.66
73455;BME280;61690;51.824;6.306;2023-06-14T11:42:39;101632.78;;;24.19;37.56
73455;BME280;61690;51.824;6.306;2023-06-14T11:45:09;101625.63;;;24.19;37.85
73455;BME280;61690;51.824;6.306;2023-06-14T11:47:35;101627.06;;;24.23;37.75
73455;BME280;61690;51.824;6.306;2023-06-14T11:50:01;101630.94;;;24.19;37.77
73455;BME280;61690;51.824;6.306;2023-06-14T11:52:27;101629.88;;;24.11;38.13
73455;BME280;61690;51.824;6.306;2023-06-14T11:54:53;101629.38;;;24.05;37.97
73455;BME280;61690;51.824;6.306;2023-06-14T11:57:18;101636.72;;;24.02;37.94
73455;BME280;61690;51.824;6.306;2023-06-14T11:59:44;101627.91;;;24.01;38.04
73455;BME280;61690;51.824;6.306;2023-06-14T12:02:14;101627.19;;;23.99;37.98
73455;BME280;61690;51.824;6.306;2023-06-14T12:04:49;101628.97;;;23.99;38.08
73455;BME280;61690;51.824;6.306;2023-06-14T12:07:15;101628.88;;;24.00;38.09
73455;BME280;61690;51.824;6.306;2023-06-14T12:12:13;101621.72;;;24.01;38.15
73455;BME280;61690;51.824;6.306;2023-06-14T12:14:41;101627.91;;;24.01;37.93
73455;BME280;61690;51.824;6.306;2023-06-14T12:17:07;101632.34;;;24.01;37.76
73455;BME280;61690;51.824;6.306;2023-06-14T12:19:32;101627.91;;;24.01;38.05
73455;BME280;61690;51.824;6.306;2023-06-14T12:22:00;101623.56;;;24.00;38.17
73455;BME280;61690;51.824;6.306;2023-06-14T12:24:29;101630.56;;;24.01;37.83
73455;BME280;61690;51.824;6.306;2023-06-14T12:26:57;101625.38;;;24.00;37.98
73455;BME280;61690;51.824;6.306;2023-06-14T12:29:24;101628.03;;;24.00;37.85
73455;BME280;61690;51.824;6.306;2023-06-14T12:31:50;101623.66;;;23.99;37.74
73455;BME280;61690;51.824;6.306;2023-06-14T12:34:15;101615.56;;;24.00;37.94
73455;BME280;61690;51.824;6.306;2023-06-14T12:36:41;101623.44;;;24.02;37.71
73455;BME280;61690;51.824;6.306;2023-06-14T12:39:09;101623.44;;;24.02;37.80
73455;BME280;61690;51.824;6.306;2023-06-14T12:41:35;101628.75;;;24.02;37.85
73455;BME280;61690;51.824;6.306;2023-06-14T12:44:01;101620.66;;;24.03;37.88
73455;BME280;61690;51.824;6.306;2023-06-14T12:46:30;101619.84;;;24.03;37.65
73455;BME280;61690;51.824;6.306;2023-06-14T12:48:56;101619.84;;;24.03;37.63
73455;BME280;61690;51.824;6.306;2023-06-14T12:51:21;101627.81;;;24.03;37.72
73455;BME280;61690;51.824;6.306;2023-06-14T12:53:47;101620.66;;;24.03;37.57
73455;BME280;61690;51.824;6.306;2023-06-14T12:56:14;101626.69;;;23.94;36.90
73455;BME280;61690;51.824;6.306;2023-06-14T12:58:39;101628.25;;;23.97;36.39
73455;BME280;61690;51.824;6.306;2023-06-14T13:01:05;101635.03;;;23.90;36.93
73455;BME280;61690;51.824;6.306;2023-06-14T13:03:30;101629.72;;;23.90;36.83
73455;BME280;61690;51.824;6.306;2023-06-14T13:05:56;101631.16;;;23.94;36.67